sensor_id;sensor_type;location;lat;lon;timestamp;P1;durP1;ratioP1;P2;durP2;ratioP2
13683;SDS011;6914;53.552;9.908;2023-05-15T00:01:30;16.50;;;8.70;;
13683;SDS011;6914;53.552;9.908;2023-05-15T00:03:57;9.30;;;8.37;;
13683;SDS011;6914;53.552;9.908;2023-05-15T00:06:24;10.53;;;9.50;;
13683;SDS011;6914;53.552;9.908;2023-05-15T00:08:52;8.83;;;7.90;;
13683;SDS011;6914;53.552;9.908;2023-05-15T00:11:19;11.93;;;9.20;;
13683;SDS011;6914;53.552;9.908;2023-05-15T00:13:47;14.37;;;10.10;;
13683;SDS011;6914;53.552;9.908;2023-05-15T00:16:16;14.70;;;8.83;;
13683;SDS011;6914;53.552;9.908;2023-05-15T00:18:43;11.17;;;9.50;;
13683;SDS011;6914;53.552;9.908;2023-05-15T00:21:10;9.40;;;8.40;;
13683;SDS011;6914;53.552;9.908;2023-05-15T00:23:37;10.23;;;8.93;;
13683;SDS011;6914;53.552;9.908;2023-05-15T00:26:04;9.83;;;8.87;;
13683;SDS011;6914;53.552;9.908;2023-05-15T00:28:31;14.47;;;10.37;;
13683;SDS011;6914;53.552;9.908;2023-05-15T00:30:58;12.53;;;8.90;;
13683;SDS011;6914;53.552;9.908;2023-05-15T00:33:26;16.73;;;9.17;;
13683;SDS011;6914;53.552;9.908;2023-05-15T00:35:53;14.13;;;10.13;;
13683;SDS011;6914;53.552;9.908;2023-05-15T00:38:20;12.60;;;10.53;;
13683;SDS011;6914;53.552;9.908;2023-05-15T00:40:47;10.97;;;9.87;;
13683;SDS011;6914;53.552;9.908;2023-05-15T00:43:17;12.50;;;9.40;;
13683;SDS011;6914;53.552;9.908;2023-05-15T00:45:45;14.57;;;9.30;;
13683;SDS011;6914;53.552;9.908;2023-05-15T00:48:13;10.10;;;9.13;;
13683;SDS011;6914;53.552;9.908;2023-05-15T00:50:43;10.53;;;9.63;;
13683;SDS011;6914;53.552;9.908;2023-05-15T00:53:10;10.03;;;9.13;;
13683;SDS011;6914;53.552;9.908;2023-05-15T00:55:37;12.20;;;10.50;;
13683;SDS011;6914;53.552;9.908;2023-05-15T00:58:06;15.60;;;10.20;;
13683;SDS011;6914;53.552;9.908;2023-05-15T01:00:35;11.93;;;10.13;;
13683;SDS011;6914;53.552;9.908;2023-05-15T01:03:03;17.60;;;10.60;;
13683;SDS011;6914;53.552;9.908;2023-05-15T01:05:32;10.73;;;9.70;;
13683;SDS011;6914;53.552;9.908;2023-05-15T01:08:03;10.97;;;9.87;;
13683;SDS011;6914;53.552;9.908;2023-05-15T01:10:35;21.53;;;9.97;;
13683;SDS011;6914;53.552;9.908;2023-05-15T01:13:05;11.13;;;10.03;;
13683;SDS011;6914;53.552;9.908;2023-05-15T01:15:34;10.57;;;9.50;;
13683;SDS011;6914;53.552;9.908;2023-05-15T01:18:01;13.70;;;10.63;;
13683;SDS011;6914;53.552;9.908;2023-05-15T01:20:30;12.87;;;9.67;;
13683;SDS011;6914;53.552;9.908;2023-05-15T01:23:14;13.20;;;11.50;;
13683;SDS011;6914;53.552;9.908;2023-05-15T01:28:58;15.63;;;11.20;;
13683;SDS011;6914;53.552;9.908;2023-05-15T01:31:30;10.50;;;9.60;;
13683;SDS011;6914;53.552;9.908;2023-05-15T01:34:01;12.23;;;10.90;;
13683;SDS011;6914;53.552;9.908;2023-05-15T01:36:34;12.33;;;10.77;;
13683;SDS011;6914;53.552;9.908;2023-05-15T01:39:04;21.93;;;12.13;;
13683;SDS011;6914;53.552;9.908;2023-05-15T01:41:34;19.93;;;11.43;;
13683;SDS011;6914;53.552;9.908;2023-05-15T01:44:10;11.37;;;10.37;;
13683;SDS011;6914;53.552;9.908;2023-05-15T01:46:43;12.47;;;11.20;;
13683;SDS011;6914;53.552;9.908;2023-05-15T01:49:14;21.50;;;11.40;;
13683;SDS011;6914;53.552;9.908;2023-05-15T01:51:44;12.10;;;10.90;;
13683;SDS011;6914;53.552;9.908;2023-05-15T01:54:14;13.17;;;11.87;;
13683;SDS011;6914;53.552;9.908;2023-05-15T01:56:42;16.00;;;11.73;;
13683;SDS011;6914;53.552;9.908;2023-05-15T01:59:12;16.53;;;10.73;;
13683;SDS011;6914;53.552;9.908;2023-05-15T02:01:39;15.97;;;13.10;;
13683;SDS011;6914;53.552;9.908;2023-05-15T02:04:08;12.50;;;11.20;;
13683;SDS011;6914;53.552;9.908;2023-05-15T02:06:36;12.20;;;10.83;;
13683;SDS011;6914;53.552;9.908;2023-05-15T02:09:05;12.23;;;11.03;;
13683;SDS011;6914;53.552;9.908;2023-05-15T02:11:35;12.60;;;11.50;;
13683;SDS011;6914;53.552;9.908;2023-05-15T02:14:03;18.70;;;11.77;;
13683;SDS011;6914;53.552;9.908;2023-05-15T02:16:33;13.00;;;11.77;;
13683;SDS011;6914;53.552;9.908;2023-05-15T02:19:01;29.63;;;12.63;;
13683;SDS011;6914;53.552;9.908;2023-05-15T02:21:28;12.90;;;11.63;;
13683;SDS011;6914;53.552;9.908;2023-05-15T02:23:54;15.30;;;12.70;;
13683;SDS011;6914;53.552;9.908;2023-05-15T02:26:25;13.90;;;12.40;;
13683;SDS011;6914;53.552;9.908;2023-05-15T02:29:03;13.67;;;12.30;;
13683;SDS011;6914;53.552;9.908;2023-05-15T02:31:43;14.10;;;12.33;;
13683;SDS011;6914;53.552;9.908;2023-05-15T02:34:20;14.50;;;13.00;;
13683;SDS011;6914;53.552;9.908;2023-05-15T02:36:58;15.60;;;12.90;;
13683;SDS011;6914;53.552;9.908;2023-05-15T02:39:26;14.03;;;12.60;;
13683;SDS011;6914;53.552;9.908;2023-05-15T02:41:55;16.17;;;12.73;;
13683;SDS011;6914;53.552;9.908;2023-05-15T02:44:22;14.10;;;12.60;;
13683;SDS011;6914;53.552;9.908;2023-05-15T02:46:52;17.70;;;12.40;;
13683;SDS011;6914;53.552;9.908;2023-05-15T02:49:20;20.07;;;12.17;;
13683;SDS011;6914;53.552;9.908;2023-05-15T02:51:48;13.30;;;11.90;;
13683;SDS011;6914;53.552;9.908;2023-05-15T02:54:15;15.70;;;11.00;;
13683;SDS011;6914;53.552;9.908;2023-05-15T02:56:43;16.80;;;12.70;;
13683;SDS011;6914;53.552;9.908;2023-05-15T02:59:10;14.23;;;12.63;;
13683;SDS011;6914;53.552;9.908;2023-05-15T03:01:37;14.80;;;13.30;;
13683;SDS011;6914;53.552;9.908;2023-05-15T03:04:06;20.30;;;13.43;;
13683;SDS011;6914;53.552;9.908;2023-05-15T03:06:34;15.63;;;12.90;;
13683;SDS011;6914;53.552;9.908;2023-05-15T03:09:01;17.00;;;14.27;;
13683;SDS011;6914;53.552;9.908;2023-05-15T03:11:28;14.30;;;12.80;;
13683;SDS011;6914;53.552;9.908;2023-05-15T03:13:55;15.63;;;14.17;;
13683;SDS011;6914;53.552;9.908;2023-05-15T03:16:24;14.40;;;13.00;;
13683;SDS011;6914;53.552;9.908;2023-05-15T03:18:51;14.20;;;12.87;;
13683;SDS011;6914;53.552;9.908;2023-05-15T03:21:19;19.23;;;13.93;;
13683;SDS011;6914;53.552;9.908;2023-05-15T03:23:46;17.63;;;13.40;;
13683;SDS011;6914;53.552;9.908;2023-05-15T03:26:13;19.90;;;14.03;;
13683;SDS011;6914;53.552;9.908;2023-05-15T03:28:40;16.07;;;13.80;;
13683;SDS011;6914;53.552;9.908;2023-05-15T03:31:07;17.97;;;13.87;;
13683;SDS011;6914;53.552;9.908;2023-05-15T03:33:34;16.23;;;14.23;;
13683;SDS011;6914;53.552;9.908;2023-05-15T03:36:03;17.77;;;14.33;;
13683;SDS011;6914;53.552;9.908;2023-05-15T03:38:32;24.40;;;15.50;;
13683;SDS011;6914;53.552;9.908;2023-05-15T03:40:59;19.20;;;14.80;;
13683;SDS011;6914;53.552;9.908;2023-05-15T03:43:26;17.07;;;15.17;;
13683;SDS011;6914;53.552;9.908;2023-05-15T03:45:53;20.93;;;15.50;;
13683;SDS011;6914;53.552;9.908;2023-05-15T03:48:20;16.90;;;15.37;;
13683;SDS011;6914;53.552;9.908;2023-05-15T03:50:47;18.97;;;15.53;;
13683;SDS011;6914;53.552;9.908;2023-05-15T03:53:13;17.00;;;15.30;;
13683;SDS011;6914;53.552;9.908;2023-05-15T03:55:42;16.67;;;14.97;;
13683;SDS011;6914;53.552;9.908;2023-05-15T03:58:09;26.63;;;15.60;;
13683;SDS011;6914;53.552;9.908;2023-05-15T04:00:36;22.03;;;15.93;;
13683;SDS011;6914;53.552;9.908;2023-05-15T04:03:03;29.80;;;16.07;;
13683;SDS011;6914;53.552;9.908;2023-05-15T04:05:30;18.23;;;16.33;;
13683;SDS011;6914;53.552;9.908;2023-05-15T04:07:57;17.93;;;16.13;;
13683;SDS011;6914;53.552;9.908;2023-05-15T04:10:24;17.80;;;15.90;;
13683;SDS011;6914;53.552;9.908;2023-05-15T04:12:53;24.90;;;16.23;;
13683;SDS011;6914;53.552;9.908;2023-05-15T04:15:20;22.90;;;17.00;;
13683;SDS011;6914;53.552;9.908;2023-05-15T04:17:49;29.23;;;18.87;;
13683;SDS011;6914;53.552;9.908;2023-05-15T04:20:17;19.93;;;16.30;;
13683;SDS011;6914;53.552;9.908;2023-05-15T04:22:45;21.10;;;17.70;;
13683;SDS011;6914;53.552;9.908;2023-05-15T04:25:12;21.50;;;15.53;;
13683;SDS011;6914;53.552;9.908;2023-05-15T04:27:40;20.93;;;16.27;;
13683;SDS011;6914;53.552;9.908;2023-05-15T04:30:10;17.47;;;15.77;;
13683;SDS011;6914;53.552;9.908;2023-05-15T04:32:39;22.23;;;16.10;;
13683;SDS011;6914;53.552;9.908;2023-05-15T04:35:06;23.63;;;15.17;;
13683;SDS011;6914;53.552;9.908;2023-05-15T04:37:37;24.43;;;15.50;;
13683;SDS011;6914;53.552;9.908;2023-05-15T04:40:05;32.80;;;17.57;;
13683;SDS011;6914;53.552;9.908;2023-05-15T04:42:34;19.10;;;15.27;;
13683;SDS011;6914;53.552;9.908;2023-05-15T04:45:01;18.67;;;16.47;;
13683;SDS011;6914;53.552;9.908;2023-05-15T04:47:30;22.90;;;17.90;;
13683;SDS011;6914;53.552;9.908;2023-05-15T04:49:57;21.53;;;17.20;;
13683;SDS011;6914;53.552;9.908;2023-05-15T04:52:24;24.07;;;17.13;;
13683;SDS011;6914;53.552;9.908;2023-05-15T04:54:51;21.53;;;17.13;;
13683;SDS011;6914;53.552;9.908;2023-05-15T04:57:19;18.30;;;15.60;;
13683;SDS011;6914;53.552;9.908;2023-05-15T04:59:47;25.33;;;16.63;;
13683;SDS011;6914;53.552;9.908;2023-05-15T05:02:13;21.10;;;17.23;;
13683;SDS011;6914;53.552;9.908;2023-05-15T05:04:42;20.67;;;17.03;;
13683;SDS011;6914;53.552;9.908;2023-05-15T05:07:09;18.63;;;16.80;;
13683;SDS011;6914;53.552;9.908;2023-05-15T05:09:37;23.43;;;17.17;;
13683;SDS011;6914;53.552;9.908;2023-05-15T05:12:05;18.27;;;16.47;;
13683;SDS011;6914;53.552;9.908;2023-05-15T05:14:33;22.80;;;17.07;;
13683;SDS011;6914;53.552;9.908;2023-05-15T05:17:00;18.83;;;15.17;;
13683;SDS011;6914;53.552;9.908;2023-05-15T05:19:27;33.90;;;16.77;;
13683;SDS011;6914;53.552;9.908;2023-05-15T05:21:56;26.17;;;16.50;;
13683;SDS011;6914;53.552;9.908;2023-05-15T05:24:25;23.20;;;16.57;;
13683;SDS011;6914;53.552;9.908;2023-05-15T05:26:52;21.83;;;16.57;;
13683;SDS011;6914;53.552;9.908;2023-05-15T05:29:22;23.90;;;18.20;;
13683;SDS011;6914;53.552;9.908;2023-05-15T05:31:49;21.00;;;17.27;;
13683;SDS011;6914;53.552;9.908;2023-05-15T05:34:16;26.20;;;16.80;;
13683;SDS011;6914;53.552;9.908;2023-05-15T05:36:44;17.43;;;15.80;;
13683;SDS011;6914;53.552;9.908;2023-05-15T05:39:13;22.33;;;17.30;;
13683;SDS011;6914;53.552;9.908;2023-05-15T05:41:41;18.90;;;17.00;;
13683;SDS011;6914;53.552;9.908;2023-05-15T05:44:08;25.90;;;14.77;;
13683;SDS011;6914;53.552;9.908;2023-05-15T05:46:35;18.80;;;16.27;;
13683;SDS011;6914;53.552;9.908;2023-05-15T05:49:02;17.50;;;15.67;;
13683;SDS011;6914;53.552;9.908;2023-05-15T05:51:29;22.33;;;19.20;;
13683;SDS011;6914;53.552;9.908;2023-05-15T05:53:56;22.20;;;19.80;;
13683;SDS011;6914;53.552;9.908;2023-05-15T05:56:25;24.10;;;20.60;;
13683;SDS011;6914;53.552;9.908;2023-05-15T05:58:52;27.20;;;23.73;;
13683;SDS011;6914;53.552;9.908;2023-05-15T06:01:21;34.73;;;23.83;;
13683;SDS011;6914;53.552;9.908;2023-05-15T06:03:48;26.27;;;23.57;;
13683;SDS011;6914;53.552;9.908;2023-05-15T06:06:15;29.27;;;25.10;;
13683;SDS011;6914;53.552;9.908;2023-05-15T06:08:42;24.47;;;21.20;;
13683;SDS011;6914;53.552;9.908;2023-05-15T06:11:10;28.63;;;17.63;;
13683;SDS011;6914;53.552;9.908;2023-05-15T06:13:38;23.27;;;16.50;;
13683;SDS011;6914;53.552;9.908;2023-05-15T06:16:05;22.53;;;14.70;;
13683;SDS011;6914;53.552;9.908;2023-05-15T06:18:32;15.97;;;14.27;;
13683;SDS011;6914;53.552;9.908;2023-05-15T06:20:59;24.67;;;13.73;;
13683;SDS011;6914;53.552;9.908;2023-05-15T06:23:26;22.47;;;12.60;;
13683;SDS011;6914;53.552;9.908;2023-05-15T06:25:53;17.57;;;12.80;;
13683;SDS011;6914;53.552;9.908;2023-05-15T06:28:20;20.70;;;12.67;;
13683;SDS011;6914;53.552;9.908;2023-05-15T06:30:48;27.17;;;15.33;;
13683;SDS011;6914;53.552;9.908;2023-05-15T06:33:16;14.60;;;11.47;;
13683;SDS011;6914;53.552;9.908;2023-05-15T06:35:42;21.53;;;11.00;;
13683;SDS011;6914;53.552;9.908;2023-05-15T06:38:10;14.53;;;9.90;;
13683;SDS011;6914;53.552;9.908;2023-05-15T06:40:37;15.83;;;8.97;;
13683;SDS011;6914;53.552;9.908;2023-05-15T06:43:04;15.87;;;10.20;;
13683;SDS011;6914;53.552;9.908;2023-05-15T06:45:31;9.30;;;8.50;;
13683;SDS011;6914;53.552;9.908;2023-05-15T06:47:59;11.97;;;8.90;;
13683;SDS011;6914;53.552;9.908;2023-05-15T06:50:26;10.23;;;9.17;;
13683;SDS011;6914;53.552;9.908;2023-05-15T06:52:53;9.70;;;8.80;;
13683;SDS011;6914;53.552;9.908;2023-05-15T06:55:20;21.03;;;7.60;;
13683;SDS011;6914;53.552;9.908;2023-05-15T06:57:47;19.80;;;8.20;;
13683;SDS011;6914;53.552;9.908;2023-05-15T07:00:14;14.40;;;7.80;;
13683;SDS011;6914;53.552;9.908;2023-05-15T07:02:42;11.43;;;7.17;;
13683;SDS011;6914;53.552;9.908;2023-05-15T07:05:10;16.83;;;6.40;;
13683;SDS011;6914;53.552;9.908;2023-05-15T07:07:37;18.53;;;6.77;;
13683;SDS011;6914;53.552;9.908;2023-05-15T07:10:05;7.33;;;6.00;;
13683;SDS011;6914;53.552;9.908;2023-05-15T07:12:33;7.37;;;6.77;;
13683;SDS011;6914;53.552;9.908;2023-05-15T07:15:00;6.97;;;6.30;;
13683;SDS011;6914;53.552;9.908;2023-05-15T07:17:27;13.83;;;6.90;;
13683;SDS011;6914;53.552;9.908;2023-05-15T07:19:54;14.17;;;6.93;;
13683;SDS011;6914;53.552;9.908;2023-05-15T07:22:22;6.23;;;5.73;;
13683;SDS011;6914;53.552;9.908;2023-05-15T07:24:51;12.00;;;5.50;;
13683;SDS011;6914;53.552;9.908;2023-05-15T07:27:18;5.60;;;4.90;;
13683;SDS011;6914;53.552;9.908;2023-05-15T07:29:45;4.60;;;4.30;;
13683;SDS011;6914;53.552;9.908;2023-05-15T07:32:13;5.60;;;4.90;;
13683;SDS011;6914;53.552;9.908;2023-05-15T07:34:40;5.07;;;4.63;;
13683;SDS011;6914;53.552;9.908;2023-05-15T07:37:07;4.87;;;4.40;;
13683;SDS011;6914;53.552;9.908;2023-05-15T07:39:35;5.00;;;4.60;;
13683;SDS011;6914;53.552;9.908;2023-05-15T07:42:03;4.70;;;3.80;;
13683;SDS011;6914;53.552;9.908;2023-05-15T07:44:30;8.90;;;5.27;;
13683;SDS011;6914;53.552;9.908;2023-05-15T07:46:57;10.63;;;5.07;;
13683;SDS011;6914;53.552;9.908;2023-05-15T07:49:24;7.20;;;4.50;;
13683;SDS011;6914;53.552;9.908;2023-05-15T07:51:51;3.83;;;3.63;;
13683;SDS011;6914;53.552;9.908;2023-05-15T07:54:18;5.93;;;4.83;;
13683;SDS011;6914;53.552;9.908;2023-05-15T07:56:46;4.40;;;4.07;;
13683;SDS011;6914;53.552;9.908;2023-05-15T07:59:13;4.87;;;4.47;;
13683;SDS011;6914;53.552;9.908;2023-05-15T08:01:41;8.57;;;5.10;;
13683;SDS011;6914;53.552;9.908;2023-05-15T08:04:08;5.83;;;3.70;;
13683;SDS011;6914;53.552;9.908;2023-05-15T08:06:37;7.07;;;3.87;;
13683;SDS011;6914;53.552;9.908;2023-05-15T08:09:07;7.53;;;3.77;;
13683;SDS011;6914;53.552;9.908;2023-05-15T08:11:35;4.70;;;3.63;;
13683;SDS011;6914;53.552;9.908;2023-05-15T08:14:03;3.40;;;3.30;;
13683;SDS011;6914;53.552;9.908;2023-05-15T08:16:30;4.07;;;3.60;;
13683;SDS011;6914;53.552;9.908;2023-05-15T08:18:57;3.43;;;3.23;;
13683;SDS011;6914;53.552;9.908;2023-05-15T08:21:28;13.57;;;4.00;;
13683;SDS011;6914;53.552;9.908;2023-05-15T08:23:55;11.33;;;3.30;;
13683;SDS011;6914;53.552;9.908;2023-05-15T08:26:22;4.33;;;3.30;;
13683;SDS011;6914;53.552;9.908;2023-05-15T08:28:49;3.97;;;3.77;;
13683;SDS011;6914;53.552;9.908;2023-05-15T08:31:19;5.53;;;3.30;;
13683;SDS011;6914;53.552;9.908;2023-05-15T08:33:46;6.63;;;3.27;;
13683;SDS011;6914;53.552;9.908;2023-05-15T08:36:13;3.60;;;3.40;;
13683;SDS011;6914;53.552;9.908;2023-05-15T08:38:42;3.00;;;2.90;;
13683;SDS011;6914;53.552;9.908;2023-05-15T08:41:10;6.77;;;3.50;;
13683;SDS011;6914;53.552;9.908;2023-05-15T08:43:46;10.00;;;3.83;;
13683;SDS011;6914;53.552;9.908;2023-05-15T08:46:14;4.20;;;3.90;;
13683;SDS011;6914;53.552;9.908;2023-05-15T08:48:44;3.63;;;3.33;;
13683;SDS011;6914;53.552;9.908;2023-05-15T08:51:12;3.60;;;3.40;;
13683;SDS011;6914;53.552;9.908;2023-05-15T08:53:43;6.43;;;3.37;;
13683;SDS011;6914;53.552;9.908;2023-05-15T08:56:11;3.57;;;3.30;;
13683;SDS011;6914;53.552;9.908;2023-05-15T08:58:38;3.70;;;3.50;;
13683;SDS011;6914;53.552;9.908;2023-05-15T09:01:05;6.70;;;3.37;;
13683;SDS011;6914;53.552;9.908;2023-05-15T09:03:33;6.30;;;4.77;;
13683;SDS011;6914;53.552;9.908;2023-05-15T09:06:01;5.70;;;3.40;;
13683;SDS011;6914;53.552;9.908;2023-05-15T09:08:30;8.00;;;4.10;;
13683;SDS011;6914;53.552;9.908;2023-05-15T09:10:58;5.03;;;4.10;;
13683;SDS011;6914;53.552;9.908;2023-05-15T09:13:26;10.70;;;4.90;;
13683;SDS011;6914;53.552;9.908;2023-05-15T09:15:53;8.73;;;4.33;;
13683;SDS011;6914;53.552;9.908;2023-05-15T09:18:20;4.40;;;4.20;;
13683;SDS011;6914;53.552;9.908;2023-05-15T09:20:48;3.80;;;3.60;;
13683;SDS011;6914;53.552;9.908;2023-05-15T09:23:23;3.80;;;3.50;;
13683;SDS011;6914;53.552;9.908;2023-05-15T09:25:52;3.27;;;2.67;;
13683;SDS011;6914;53.552;9.908;2023-05-15T09:28:24;3.53;;;3.23;;
13683;SDS011;6914;53.552;9.908;2023-05-15T09:30:56;3.73;;;3.53;;
13683;SDS011;6914;53.552;9.908;2023-05-15T09:33:29;2.83;;;2.63;;
13683;SDS011;6914;53.552;9.908;2023-05-15T09:35:57;4.37;;;3.60;;
13683;SDS011;6914;53.552;9.908;2023-05-15T09:38:26;5.97;;;3.80;;
13683;SDS011;6914;53.552;9.908;2023-05-15T09:41:01;6.60;;;3.73;;
13683;SDS011;6914;53.552;9.908;2023-05-15T09:43:28;3.67;;;3.40;;
13683;SDS011;6914;53.552;9.908;2023-05-15T09:45:59;5.53;;;3.60;;
13683;SDS011;6914;53.552;9.908;2023-05-15T09:48:27;4.27;;;3.70;;
13683;SDS011;6914;53.552;9.908;2023-05-15T09:50:54;7.20;;;3.40;;
13683;SDS011;6914;53.552;9.908;2023-05-15T09:53:21;6.20;;;3.20;;
13683;SDS011;6914;53.552;9.908;2023-05-15T09:55:50;4.00;;;3.70;;
13683;SDS011;6914;53.552;9.908;2023-05-15T09:58:18;3.50;;;2.63;;
13683;SDS011;6914;53.552;9.908;2023-05-15T10:00:47;4.90;;;3.30;;
13683;SDS011;6914;53.552;9.908;2023-05-15T10:03:14;3.07;;;2.97;;
13683;SDS011;6914;53.552;9.908;2023-05-15T10:05:43;9.03;;;3.30;;
13683;SDS011;6914;53.552;9.908;2023-05-15T10:08:10;6.50;;;3.13;;
13683;SDS011;6914;53.552;9.908;2023-05-15T10:10:40;5.53;;;3.30;;
13683;SDS011;6914;53.552;9.908;2023-05-15T10:13:08;3.93;;;3.27;;
13683;SDS011;6914;53.552;9.908;2023-05-15T10:15:36;7.23;;;2.80;;
13683;SDS011;6914;53.552;9.908;2023-05-15T10:18:05;3.90;;;2.70;;
13683;SDS011;6914;53.552;9.908;2023-05-15T10:20:32;4.50;;;2.63;;
13683;SDS011;6914;53.552;9.908;2023-05-15T10:23:00;2.97;;;2.77;;
13683;SDS011;6914;53.552;9.908;2023-05-15T10:25:32;3.23;;;2.40;;
13683;SDS011;6914;53.552;9.908;2023-05-15T10:28:03;3.73;;;2.43;;
13683;SDS011;6914;53.552;9.908;2023-05-15T10:30:35;3.03;;;2.83;;
13683;SDS011;6914;53.552;9.908;2023-05-15T10:33:02;2.73;;;2.53;;
13683;SDS011;6914;53.552;9.908;2023-05-15T10:35:30;2.50;;;2.40;;
13683;SDS011;6914;53.552;9.908;2023-05-15T10:37:58;2.23;;;2.13;;
13683;SDS011;6914;53.552;9.908;2023-05-15T10:40:28;3.13;;;2.20;;
13683;SDS011;6914;53.552;9.908;2023-05-15T10:42:58;2.43;;;2.23;;
13683;SDS011;6914;53.552;9.908;2023-05-15T10:45:25;2.53;;;2.30;;
13683;SDS011;6914;53.552;9.908;2023-05-15T10:47:56;2.70;;;2.50;;
13683;SDS011;6914;53.552;9.908;2023-05-15T10:50:27;2.80;;;2.70;;
13683;SDS011;6914;53.552;9.908;2023-05-15T10:52:56;2.70;;;2.60;;
13683;SDS011;6914;53.552;9.908;2023-05-15T10:55:25;2.93;;;2.63;;
13683;SDS011;6914;53.552;9.908;2023-05-15T10:57:52;3.30;;;2.67;;
13683;SDS011;6914;53.552;9.908;2023-05-15T11:00:25;4.60;;;3.27;;
13683;SDS011;6914;53.552;9.908;2023-05-15T11:02:54;3.60;;;3.30;;
13683;SDS011;6914;53.552;9.908;2023-05-15T11:05:23;5.07;;;3.00;;
13683;SDS011;6914;53.552;9.908;2023-05-15T11:10:51;3.30;;;2.90;;
13683;SDS011;6914;53.552;9.908;2023-05-15T11:13:18;4.00;;;3.67;;
13683;SDS011;6914;53.552;9.908;2023-05-15T11:15:46;3.07;;;2.87;;
13683;SDS011;6914;53.552;9.908;2023-05-15T11:18:15;6.80;;;3.20;;
13683;SDS011;6914;53.552;9.908;2023-05-15T11:23:36;6.20;;;3.20;;
13683;SDS011;6914;53.552;9.908;2023-05-15T11:26:05;3.07;;;2.97;;
13683;SDS011;6914;53.552;9.908;2023-05-15T11:28:39;3.47;;;3.27;;
13683;SDS011;6914;53.552;9.908;2023-05-15T11:31:09;3.67;;;3.47;;
13683;SDS011;6914;53.552;9.908;2023-05-15T11:33:38;7.03;;;3.57;;
13683;SDS011;6914;53.552;9.908;2023-05-15T11:36:06;8.50;;;3.20;;
13683;SDS011;6914;53.552;9.908;2023-05-15T11:38:37;5.93;;;3.00;;
13683;SDS011;6914;53.552;9.908;2023-05-15T11:41:15;4.97;;;3.60;;
13683;SDS011;6914;53.552;9.908;2023-05-15T11:43:43;3.73;;;3.33;;
13683;SDS011;6914;53.552;9.908;2023-05-15T11:46:12;5.53;;;3.20;;
13683;SDS011;6914;53.552;9.908;2023-05-15T11:48:41;6.47;;;3.23;;
13683;SDS011;6914;53.552;9.908;2023-05-15T11:51:14;7.37;;;3.40;;
13683;SDS011;6914;53.552;9.908;2023-05-15T11:53:43;3.90;;;3.70;;
13683;SDS011;6914;53.552;9.908;2023-05-15T11:56:16;3.73;;;3.43;;
13683;SDS011;6914;53.552;9.908;2023-05-15T11:58:46;4.00;;;3.70;;
13683;SDS011;6914;53.552;9.908;2023-05-15T12:01:13;5.20;;;4.13;;
13683;SDS011;6914;53.552;9.908;2023-05-15T12:03:42;10.07;;;5.57;;
13683;SDS011;6914;53.552;9.908;2023-05-15T12:06:11;6.40;;;6.00;;
13683;SDS011;6914;53.552;9.908;2023-05-15T12:08:38;7.50;;;6.70;;
13683;SDS011;6914;53.552;9.908;2023-05-15T12:11:06;10.23;;;7.80;;
13683;SDS011;6914;53.552;9.908;2023-05-15T12:13:33;18.97;;;7.57;;
13683;SDS011;6914;53.552;9.908;2023-05-15T12:16:01;7.47;;;6.77;;
13683;SDS011;6914;53.552;9.908;2023-05-15T12:18:29;7.70;;;7.00;;
13683;SDS011;6914;53.552;9.908;2023-05-15T12:20:58;8.30;;;7.60;;
13683;SDS011;6914;53.552;9.908;2023-05-15T12:23:26;11.60;;;7.80;;
13683;SDS011;6914;53.552;9.908;2023-05-15T12:25:54;14.30;;;7.23;;
13683;SDS011;6914;53.552;9.908;2023-05-15T12:28:24;7.87;;;7.10;;
13683;SDS011;6914;53.552;9.908;2023-05-15T12:30:52;9.40;;;8.20;;
13683;SDS011;6914;53.552;9.908;2023-05-15T12:33:20;8.13;;;7.03;;
13683;SDS011;6914;53.552;9.908;2023-05-15T12:35:49;10.63;;;7.67;;
13683;SDS011;6914;53.552;9.908;2023-05-15T12:38:20;9.30;;;8.47;;
13683;SDS011;6914;53.552;9.908;2023-05-15T12:40:50;13.37;;;9.67;;
13683;SDS011;6914;53.552;9.908;2023-05-15T12:43:18;9.43;;;8.63;;
13683;SDS011;6914;53.552;9.908;2023-05-15T12:45:45;9.70;;;8.90;;
13683;SDS011;6914;53.552;9.908;2023-05-15T12:48:16;8.83;;;8.10;;
13683;SDS011;6914;53.552;9.908;2023-05-15T12:50:43;13.23;;;8.43;;
13683;SDS011;6914;53.552;9.908;2023-05-15T12:53:12;13.23;;;8.17;;
13683;SDS011;6914;53.552;9.908;2023-05-15T12:55:42;10.90;;;9.30;;
13683;SDS011;6914;53.552;9.908;2023-05-15T12:58:10;9.00;;;8.07;;
13683;SDS011;6914;53.552;9.908;2023-05-15T13:00:39;10.90;;;8.47;;
13683;SDS011;6914;53.552;9.908;2023-05-15T13:03:07;16.83;;;7.87;;
13683;SDS011;6914;53.552;9.908;2023-05-15T13:05:36;12.20;;;11.00;;
13683;SDS011;6914;53.552;9.908;2023-05-15T13:08:04;12.63;;;9.70;;
13683;SDS011;6914;53.552;9.908;2023-05-15T13:10:35;17.17;;;10.30;;
13683;SDS011;6914;53.552;9.908;2023-05-15T13:13:04;11.00;;;9.80;;
13683;SDS011;6914;53.552;9.908;2023-05-15T13:15:32;17.20;;;9.90;;
13683;SDS011;6914;53.552;9.908;2023-05-15T13:18:00;12.87;;;11.27;;
13683;SDS011;6914;53.552;9.908;2023-05-15T13:20:29;12.97;;;11.73;;
13683;SDS011;6914;53.552;9.908;2023-05-15T13:22:59;14.63;;;10.97;;
13683;SDS011;6914;53.552;9.908;2023-05-15T13:25:27;15.23;;;11.57;;
13683;SDS011;6914;53.552;9.908;2023-05-15T13:27:56;17.63;;;12.40;;
13683;SDS011;6914;53.552;9.908;2023-05-15T13:30:25;17.03;;;11.63;;
13683;SDS011;6914;53.552;9.908;2023-05-15T13:32:54;17.80;;;11.70;;
13683;SDS011;6914;53.552;9.908;2023-05-15T13:35:21;16.40;;;12.80;;
13683;SDS011;6914;53.552;9.908;2023-05-15T13:37:48;14.10;;;11.30;;
13683;SDS011;6914;53.552;9.908;2023-05-15T13:40:15;15.93;;;11.87;;
13683;SDS011;6914;53.552;9.908;2023-05-15T13:42:43;13.53;;;12.10;;
13683;SDS011;6914;53.552;9.908;2023-05-15T13:45:11;16.93;;;12.27;;
13683;SDS011;6914;53.552;9.908;2023-05-15T13:47:40;14.87;;;12.13;;
13683;SDS011;6914;53.552;9.908;2023-05-15T13:50:07;18.33;;;10.67;;
13683;SDS011;6914;53.552;9.908;2023-05-15T13:52:35;13.13;;;11.67;;
13683;SDS011;6914;53.552;9.908;2023-05-15T13:55:04;14.13;;;11.00;;
13683;SDS011;6914;53.552;9.908;2023-05-15T13:57:33;15.30;;;11.20;;
13683;SDS011;6914;53.552;9.908;2023-05-15T14:00:00;18.63;;;11.40;;
13683;SDS011;6914;53.552;9.908;2023-05-15T14:02:29;16.10;;;10.57;;
13683;SDS011;6914;53.552;9.908;2023-05-15T14:04:57;17.50;;;11.67;;
13683;SDS011;6914;53.552;9.908;2023-05-15T14:07:24;36.03;;;11.40;;
13683;SDS011;6914;53.552;9.908;2023-05-15T14:09:54;29.23;;;11.63;;
13683;SDS011;6914;53.552;9.908;2023-05-15T14:12:21;16.43;;;10.40;;
13683;SDS011;6914;53.552;9.908;2023-05-15T14:14:48;18.87;;;10.50;;
13683;SDS011;6914;53.552;9.908;2023-05-15T14:17:15;13.53;;;9.80;;
13683;SDS011;6914;53.552;9.908;2023-05-15T14:19:43;14.27;;;10.97;;
13683;SDS011;6914;53.552;9.908;2023-05-15T14:22:11;11.50;;;10.17;;
13683;SDS011;6914;53.552;9.908;2023-05-15T14:24:38;11.70;;;10.10;;
13683;SDS011;6914;53.552;9.908;2023-05-15T14:27:04;10.67;;;9.57;;
13683;SDS011;6914;53.552;9.908;2023-05-15T14:29:31;13.87;;;10.23;;
13683;SDS011;6914;53.552;9.908;2023-05-15T14:31:58;15.97;;;10.70;;
13683;SDS011;6914;53.552;9.908;2023-05-15T14:34:25;11.50;;;10.40;;
13683;SDS011;6914;53.552;9.908;2023-05-15T14:36:54;16.87;;;11.80;;
13683;SDS011;6914;53.552;9.908;2023-05-15T14:39:22;13.80;;;12.50;;
13683;SDS011;6914;53.552;9.908;2023-05-15T14:41:49;13.57;;;11.17;;
13683;SDS011;6914;53.552;9.908;2023-05-15T14:44:16;15.63;;;13.50;;
13683;SDS011;6914;53.552;9.908;2023-05-15T14:46:43;17.63;;;12.60;;
13683;SDS011;6914;53.552;9.908;2023-05-15T14:49:10;15.57;;;12.33;;
13683;SDS011;6914;53.552;9.908;2023-05-15T14:51:36;18.80;;;13.30;;
13683;SDS011;6914;53.552;9.908;2023-05-15T14:54:03;15.50;;;13.90;;
13683;SDS011;6914;53.552;9.908;2023-05-15T14:56:32;17.97;;;14.53;;
13683;SDS011;6914;53.552;9.908;2023-05-15T14:58:59;15.80;;;14.20;;
13683;SDS011;6914;53.552;9.908;2023-05-15T15:01:26;18.07;;;15.27;;